Orbital elements of N-1 R/B
| Launched | 8 September 1975 |
| Flight ended | – |
| Launch site | Tanegashima Space Center, Japan |
| Owner | Japan |
| NORAD ID | 8352 |
| Date fetched |
Epoch osculation |
Inc. [°] |
Ecc. | RA asc node [hr] |
Arg Peri. [°] |
Mean anom [°] |
Mean motion [rev/day] |
Abs. mag |
| Date fetched |
Epoch osculation |
Inc. [°] |
Ecc. | RA asc node [hr] |
Arg Peri. [°] |
Mean anom [°] |
Mean motion [rev/day] |
Abs. mag |
| 2026 May 08 17:57 | 2026 May 05 11:50:39 | 46.9879 | 0.00846 | 20.2550 | 19.8897 | 7.8510 | 13.61109 | 8.243 |
| 2026 May 07 17:58 | 2026 May 05 11:50:39 | 46.9879 | 0.00846 | 20.2550 | 19.8897 | 7.8510 | 13.61109 | 8.243 |
| 2026 May 06 17:57 | 2026 May 05 11:50:39 | 46.9879 | 0.00846 | 20.2550 | 19.8897 | 7.8510 | 13.61109 | 8.243 |
| 2026 May 05 17:57 | 2026 May 05 11:50:39 | 46.9879 | 0.00846 | 20.2550 | 19.8897 | 7.8510 | 13.61109 | 8.243 |
| 2026 May 04 17:57 | 2026 Apr 30 15:39:21 | 46.9884 | 0.00848 | 21.5535 | 0.9428 | 7.8510 | 13.61109 | 8.243 |
| 2026 May 03 17:57 | 2026 Apr 30 15:39:21 | 46.9884 | 0.00848 | 21.5535 | 0.9428 | 7.8510 | 13.61109 | 8.243 |
| 2026 May 02 17:57 | 2026 Apr 30 15:39:21 | 46.9884 | 0.00848 | 21.5535 | 0.9428 | 7.8510 | 13.61109 | 8.243 |
| 2026 May 01 17:56 | 2026 Apr 30 15:39:21 | 46.9884 | 0.00848 | 21.5535 | 0.9428 | 7.8510 | 13.61109 | 8.243 |
| 2026 Apr 30 17:56 | 2026 Apr 30 15:39:21 | 46.9884 | 0.00848 | 21.5535 | 0.9428 | 7.8510 | 13.61109 | 8.243 |
| 2026 Apr 29 17:57 | 2026 Apr 24 01:34:37 | 46.9892 | 0.00851 | 23.3203 | 335.2259 | 7.8510 | 13.61109 | 8.243 |
| 2026 Apr 28 17:56 | 2026 Apr 24 01:34:37 | 46.9892 | 0.00851 | 23.3203 | 335.2259 | 7.8510 | 13.61109 | 8.243 |
| 2026 Apr 27 17:58 | 2026 Apr 24 01:34:37 | 46.9892 | 0.00851 | 23.3203 | 335.2259 | 7.8510 | 13.61109 | 8.243 |
| 2026 Apr 26 17:58 | 2026 Apr 24 01:34:37 | 46.9892 | 0.00851 | 23.3203 | 335.2259 | 7.8510 | 13.61109 | 8.243 |
| 2026 Apr 25 17:58 | 2026 Apr 24 01:34:37 | 46.9892 | 0.00851 | 23.3203 | 335.2259 | 7.8510 | 13.61109 | 8.243 |
| 2026 Apr 24 17:59 | 2026 Apr 24 01:34:37 | 46.9892 | 0.00851 | 23.3203 | 335.2259 | 7.8510 | 13.61109 | 8.243 |
| 2026 Apr 23 17:57 | 2026 Apr 19 10:45:10 | 46.9895 | 0.00853 | 0.5589 | 317.2361 | 7.8510 | 13.61109 | 8.243 |
| 2026 Apr 22 17:57 | 2026 Apr 19 10:45:10 | 46.9895 | 0.00853 | 0.5589 | 317.2361 | 7.8510 | 13.61109 | 8.243 |
| 2026 Apr 21 17:57 | 2026 Apr 19 10:45:10 | 46.9895 | 0.00853 | 0.5589 | 317.2361 | 7.8510 | 13.61109 | 8.243 |
| 2026 Apr 20 17:57 | 2026 Apr 19 10:45:10 | 46.9895 | 0.00853 | 0.5589 | 317.2361 | 7.8510 | 13.61109 | 8.243 |
| 2026 Apr 19 17:58 | 2026 Apr 19 10:45:10 | 46.9895 | 0.00853 | 0.5589 | 317.2361 | 7.8510 | 13.61109 | 8.243 |
| 2026 Apr 18 17:56 | 2026 Apr 13 06:40:13 | 46.9894 | 0.00855 | 2.2139 | 293.2432 | 7.8510 | 13.61109 | 8.243 |
| 2026 Apr 16 17:57 | 2026 Apr 13 06:40:13 | 46.9894 | 0.00855 | 2.2139 | 293.2432 | 7.8510 | 13.61109 | 8.243 |
| 2026 Apr 14 17:57 | 2026 Apr 13 06:40:13 | 46.9894 | 0.00855 | 2.2139 | 293.2432 | 7.8510 | 13.61109 | 8.243 |
| 2026 Apr 13 17:57 | 2026 Apr 13 06:40:13 | 46.9894 | 0.00855 | 2.2139 | 293.2432 | 7.8510 | 13.61109 | 8.243 |
| 2026 Apr 12 17:57 | 2026 Apr 08 13:56:53 | 46.9887 | 0.00855 | 3.4737 | 274.9985 | 7.8510 | 13.61109 | 8.243 |
| 2026 Apr 11 17:57 | 2026 Apr 08 13:56:53 | 46.9887 | 0.00855 | 3.4737 | 274.9985 | 7.8510 | 13.61109 | 8.243 |